sensor_id;sensor_type;location;lat;lon;timestamp;pressure;altitude;pressure_sealevel;temperature
66372;BMP180;53168;51.146;17.120;2023-06-19T00:00:49;100118.80;;;15.60
66372;BMP180;53168;51.146;17.120;2023-06-19T00:03:44;100126.00;;;15.50
66372;BMP180;53168;51.146;17.120;2023-06-19T00:06:18;100125.80;;;15.50
66372;BMP180;53168;51.146;17.120;2023-06-19T00:08:55;100127.40;;;15.46
66372;BMP180;53168;51.146;17.120;2023-06-19T00:11:29;100123.00;;;15.40
66372;BMP180;53168;51.146;17.120;2023-06-19T00:14:03;100124.20;;;15.40
66372;BMP180;53168;51.146;17.120;2023-06-19T00:16:37;100118.80;;;15.30
66372;BMP180;53168;51.146;17.120;2023-06-19T00:19:13;100116.00;;;15.20
66372;BMP180;53168;51.146;17.120;2023-06-19T00:21:47;100114.40;;;15.20
66372;BMP180;53168;51.146;17.120;2023-06-19T00:24:22;100113.80;;;15.14
66372;BMP180;53168;51.146;17.120;2023-06-19T00:26:56;100114.20;;;15.10
66372;BMP180;53168;51.146;17.120;2023-06-19T00:29:35;100111.20;;;15.10
66372;BMP180;53168;51.146;17.120;2023-06-19T00:32:11;100106.40;;;15.10
66372;BMP180;53168;51.146;17.120;2023-06-19T00:34:49;100106.20;;;15.10
66372;BMP180;53168;51.146;17.120;2023-06-19T00:37:23;100105.00;;;15.10
66372;BMP180;53168;51.146;17.120;2023-06-19T00:39:58;100108.40;;;15.10
66372;BMP180;53168;51.146;17.120;2023-06-19T00:42:32;100108.80;;;15.10
66372;BMP180;53168;51.146;17.120;2023-06-19T00:45:15;100104.00;;;15.08
66372;BMP180;53168;51.146;17.120;2023-06-19T00:47:49;100104.20;;;15.00
66372;BMP180;53168;51.146;17.120;2023-06-19T00:50:25;100105.60;;;15.00
66372;BMP180;53168;51.146;17.120;2023-06-19T00:53:01;100108.60;;;15.00
66372;BMP180;53168;51.146;17.120;2023-06-19T00:55:37;100108.20;;;15.00
66372;BMP180;53168;51.146;17.120;2023-06-19T00:58:14;100102.80;;;15.00
66372;BMP180;53168;51.146;17.120;2023-06-19T01:00:52;100099.40;;;15.00
66372;BMP180;53168;51.146;17.120;2023-06-19T01:03:40;100095.40;;;14.90
66372;BMP180;53168;51.146;17.120;2023-06-19T01:06:23;100095.00;;;14.90
66372;BMP180;53168;51.146;17.120;2023-06-19T01:09:04;100099.40;;;14.90
66372;BMP180;53168;51.146;17.120;2023-06-19T01:11:48;100097.00;;;14.90
66372;BMP180;53168;51.146;17.120;2023-06-19T01:14:34;100093.40;;;14.90
66372;BMP180;53168;51.146;17.120;2023-06-19T01:17:10;100094.00;;;14.90
66372;BMP180;53168;51.146;17.120;2023-06-19T01:19:45;100089.20;;;14.90
66372;BMP180;53168;51.146;17.120;2023-06-19T01:22:28;100094.20;;;14.90
66372;BMP180;53168;51.146;17.120;2023-06-19T01:25:06;100090.60;;;14.80
66372;BMP180;53168;51.146;17.120;2023-06-19T01:27:41;100098.20;;;14.80
66372;BMP180;53168;51.146;17.120;2023-06-19T01:30:24;100099.00;;;14.70
66372;BMP180;53168;51.146;17.120;2023-06-19T01:33:09;100096.60;;;14.70
66372;BMP180;53168;51.146;17.120;2023-06-19T01:35:48;100094.40;;;14.70
66372;BMP180;53168;51.146;17.120;2023-06-19T01:38:24;100096.00;;;14.60
66372;BMP180;53168;51.146;17.120;2023-06-19T01:41:03;100099.00;;;14.60
66372;BMP180;53168;51.146;17.120;2023-06-19T01:43:40;100102.60;;;14.50
66372;BMP180;53168;51.146;17.120;2023-06-19T01:46:16;100101.40;;;14.50
66372;BMP180;53168;51.146;17.120;2023-06-19T01:48:51;100099.20;;;14.50
66372;BMP180;53168;51.146;17.120;2023-06-19T01:51:29;100101.60;;;14.40
66372;BMP180;53168;51.146;17.120;2023-06-19T01:54:03;100099.00;;;14.40
66372;BMP180;53168;51.146;17.120;2023-06-19T01:56:39;100099.00;;;14.30
66372;BMP180;53168;51.146;17.120;2023-06-19T01:59:14;100099.80;;;14.22
66372;BMP180;53168;51.146;17.120;2023-06-19T02:01:49;100101.40;;;14.20
66372;BMP180;53168;51.146;17.120;2023-06-19T02:04:23;100103.60;;;14.20
66372;BMP180;53168;51.146;17.120;2023-06-19T02:07:03;100101.00;;;14.14
66372;BMP180;53168;51.146;17.120;2023-06-19T02:09:37;100103.60;;;14.10
66372;BMP180;53168;51.146;17.120;2023-06-19T02:12:12;100099.40;;;14.10
66372;BMP180;53168;51.146;17.120;2023-06-19T02:14:50;100095.60;;;14.10
66372;BMP180;53168;51.146;17.120;2023-06-19T02:17:29;100093.80;;;14.08
66372;BMP180;53168;51.146;17.120;2023-06-19T02:20:13;100096.80;;;14.10
66372;BMP180;53168;51.146;17.120;2023-06-19T02:22:48;100094.40;;;14.10
66372;BMP180;53168;51.146;17.120;2023-06-19T02:25:22;100095.20;;;14.18
66372;BMP180;53168;51.146;17.120;2023-06-19T02:27:56;100093.80;;;14.20
66372;BMP180;53168;51.146;17.120;2023-06-19T02:30:30;100092.40;;;14.20
66372;BMP180;53168;51.146;17.120;2023-06-19T02:33:06;100094.20;;;14.30
66372;BMP180;53168;51.146;17.120;2023-06-19T02:35:40;100092.80;;;14.30
66372;BMP180;53168;51.146;17.120;2023-06-19T02:38:17;100092.00;;;14.30
66372;BMP180;53168;51.146;17.120;2023-06-19T02:41:02;100093.20;;;14.30
66372;BMP180;53168;51.146;17.120;2023-06-19T02:43:45;100085.80;;;14.20
66372;BMP180;53168;51.146;17.120;2023-06-19T02:46:20;100086.20;;;14.20
66372;BMP180;53168;51.146;17.120;2023-06-19T02:48:54;100092.40;;;14.20
66372;BMP180;53168;51.146;17.120;2023-06-19T02:51:28;100092.40;;;14.20
66372;BMP180;53168;51.146;17.120;2023-06-19T02:54:02;100096.20;;;14.20
66372;BMP180;53168;51.146;17.120;2023-06-19T02:56:36;100097.80;;;14.18
66372;BMP180;53168;51.146;17.120;2023-06-19T02:59:10;100098.20;;;14.10
66372;BMP180;53168;51.146;17.120;2023-06-19T03:01:45;100094.40;;;14.10
66372;BMP180;53168;51.146;17.120;2023-06-19T03:04:20;100090.60;;;14.10
66372;BMP180;53168;51.146;17.120;2023-06-19T03:07:00;100101.00;;;14.10
66372;BMP180;53168;51.146;17.120;2023-06-19T03:09:35;100101.00;;;14.10
66372;BMP180;53168;51.146;17.120;2023-06-19T03:12:11;100105.40;;;14.12
66372;BMP180;53168;51.146;17.120;2023-06-19T03:14:46;100106.00;;;14.20
66372;BMP180;53168;51.146;17.120;2023-06-19T03:17:20;100110.20;;;14.20
66372;BMP180;53168;51.146;17.120;2023-06-19T03:19:53;100113.80;;;14.20
66372;BMP180;53168;51.146;17.120;2023-06-19T03:22:29;100111.80;;;14.20
66372;BMP180;53168;51.146;17.120;2023-06-19T03:25:04;100105.20;;;14.20
66372;BMP180;53168;51.146;17.120;2023-06-19T03:27:38;100106.20;;;14.20
66372;BMP180;53168;51.146;17.120;2023-06-19T04:08:28;100086.80;;;16.38
66372;BMP180;53168;51.146;17.120;2023-06-19T04:11:02;100097.40;;;16.80
66372;BMP180;53168;51.146;17.120;2023-06-19T04:13:35;100100.80;;;17.00
66372;BMP180;53168;51.146;17.120;2023-06-19T04:16:10;100100.40;;;17.14
66372;BMP180;53168;51.146;17.120;2023-06-19T04:18:44;100095.40;;;17.30
66372;BMP180;53168;51.146;17.120;2023-06-19T04:21:18;100093.60;;;17.40
66372;BMP180;53168;51.146;17.120;2023-06-19T04:23:52;100097.20;;;17.50
66372;BMP180;53168;51.146;17.120;2023-06-19T04:26:26;100091.80;;;17.70
66372;BMP180;53168;51.146;17.120;2023-06-19T04:29:00;100095.20;;;17.80
66372;BMP180;53168;51.146;17.120;2023-06-19T04:31:34;100091.80;;;18.00
66372;BMP180;53168;51.146;17.120;2023-06-19T04:34:15;100094.60;;;18.20
66372;BMP180;53168;51.146;17.120;2023-06-19T04:36:49;100097.80;;;18.30
66372;BMP180;53168;51.146;17.120;2023-06-19T04:39:23;100097.40;;;18.30
66372;BMP180;53168;51.146;17.120;2023-06-19T04:41:57;100104.60;;;18.34
66372;BMP180;53168;51.146;17.120;2023-06-19T04:44:32;100104.20;;;18.40
66372;BMP180;53168;51.146;17.120;2023-06-19T04:47:07;100106.00;;;18.48
66372;BMP180;53168;51.146;17.120;2023-06-19T04:49:41;100098.60;;;18.50
66372;BMP180;53168;51.146;17.120;2023-06-19T04:52:15;100100.20;;;18.50
66372;BMP180;53168;51.146;17.120;2023-06-19T04:54:51;100105.40;;;18.60
66372;BMP180;53168;51.146;17.120;2023-06-19T04:57:25;100102.60;;;18.70
66372;BMP180;53168;51.146;17.120;2023-06-19T04:59:59;100106.80;;;18.80
66372;BMP180;53168;51.146;17.120;2023-06-19T05:02:33;100109.20;;;18.80
66372;BMP180;53168;51.146;17.120;2023-06-19T05:05:36;100107.80;;;18.90
66372;BMP180;53168;51.146;17.120;2023-06-19T05:08:12;100110.40;;;18.90
66372;BMP180;53168;51.146;17.120;2023-06-19T05:10:55;100112.80;;;18.92
66372;BMP180;53168;51.146;17.120;2023-06-19T05:13:52;100120.40;;;19.00
66372;BMP180;53168;51.146;17.120;2023-06-19T05:16:51;100123.60;;;19.06
66372;BMP180;53168;51.146;17.120;2023-06-19T05:19:29;100118.80;;;19.00
66372;BMP180;53168;51.146;17.120;2023-06-19T05:22:04;100115.80;;;19.00
66372;BMP180;53168;51.146;17.120;2023-06-19T05:24:42;100112.40;;;19.00
66372;BMP180;53168;51.146;17.120;2023-06-19T05:27:17;100112.80;;;19.10
66372;BMP180;53168;51.146;17.120;2023-06-19T05:29:51;100116.40;;;19.20
66372;BMP180;53168;51.146;17.120;2023-06-19T05:32:25;100117.40;;;19.30
66372;BMP180;53168;51.146;17.120;2023-06-19T05:35:15;100128.00;;;19.38
66372;BMP180;53168;51.146;17.120;2023-06-19T05:37:49;100128.80;;;19.50
66372;BMP180;53168;51.146;17.120;2023-06-19T05:40:24;100127.40;;;19.68
66372;BMP180;53168;51.146;17.120;2023-06-19T05:43:16;100129.40;;;19.80
66372;BMP180;53168;51.146;17.120;2023-06-19T05:46:10;100140.40;;;20.06
66372;BMP180;53168;51.146;17.120;2023-06-19T05:49:00;100148.00;;;20.36
66372;BMP180;53168;51.146;17.120;2023-06-19T05:51:47;100144.60;;;20.68
66372;BMP180;53168;51.146;17.120;2023-06-19T05:54:21;100150.20;;;20.94
66372;BMP180;53168;51.146;17.120;2023-06-19T05:56:55;100151.40;;;21.16
66372;BMP180;53168;51.146;17.120;2023-06-19T05:59:29;100147.80;;;21.34
66372;BMP180;53168;51.146;17.120;2023-06-19T06:02:03;100154.60;;;21.50
66372;BMP180;53168;51.146;17.120;2023-06-19T06:04:38;100152.80;;;21.44
66372;BMP180;53168;51.146;17.120;2023-06-19T06:07:13;100155.80;;;21.40
66372;BMP180;53168;51.146;17.120;2023-06-19T06:09:47;100161.60;;;21.50
66372;BMP180;53168;51.146;17.120;2023-06-19T06:12:21;100154.40;;;21.60
66372;BMP180;53168;51.146;17.120;2023-06-19T06:14:55;100162.80;;;21.70
66372;BMP180;53168;51.146;17.120;2023-06-19T06:17:30;100161.60;;;21.90
66372;BMP180;53168;51.146;17.120;2023-06-19T06:20:05;100163.40;;;22.10
66372;BMP180;53168;51.146;17.120;2023-06-19T06:22:44;100165.00;;;22.30
66372;BMP180;53168;51.146;17.120;2023-06-19T06:25:19;100169.40;;;22.42
66372;BMP180;53168;51.146;17.120;2023-06-19T06:27:53;100163.60;;;22.60
66372;BMP180;53168;51.146;17.120;2023-06-19T06:30:27;100168.40;;;22.70
66372;BMP180;53168;51.146;17.120;2023-06-19T06:33:01;100173.00;;;22.80
66372;BMP180;53168;51.146;17.120;2023-06-19T06:35:34;100178.60;;;22.90
66372;BMP180;53168;51.146;17.120;2023-06-19T06:38:34;100173.60;;;23.00
66372;BMP180;53168;51.146;17.120;2023-06-19T06:41:52;100181.00;;;23.20
66372;BMP180;53168;51.146;17.120;2023-06-19T07:34:41;100188.60;;;26.16
66372;BMP180;53168;51.146;17.120;2023-06-19T07:37:15;100190.00;;;26.22
66372;BMP180;53168;51.146;17.120;2023-06-19T07:39:52;100189.00;;;26.40
66372;BMP180;53168;51.146;17.120;2023-06-19T07:42:26;100190.20;;;26.40
66372;BMP180;53168;51.146;17.120;2023-06-19T07:45:02;100194.00;;;26.50
66372;BMP180;53168;51.146;17.120;2023-06-19T07:47:36;100197.40;;;26.52
66372;BMP180;53168;51.146;17.120;2023-06-19T07:50:11;100203.40;;;26.50
66372;BMP180;53168;51.146;17.120;2023-06-19T07:52:45;100199.00;;;26.50
66372;BMP180;53168;51.146;17.120;2023-06-19T07:55:19;100196.20;;;26.60
66372;BMP180;53168;51.146;17.120;2023-06-19T07:57:52;100198.00;;;26.80
66372;BMP180;53168;51.146;17.120;2023-06-19T08:00:29;100199.60;;;26.90
66372;BMP180;53168;51.146;17.120;2023-06-19T08:03:03;100195.80;;;27.12
66372;BMP180;53168;51.146;17.120;2023-06-19T08:05:38;100194.60;;;27.20
66372;BMP180;53168;51.146;17.120;2023-06-19T08:08:13;100190.60;;;27.32
66372;BMP180;53168;51.146;17.120;2023-06-19T08:10:47;100188.60;;;27.50
66372;BMP180;53168;51.146;17.120;2023-06-19T08:13:21;100187.40;;;27.70
66372;BMP180;53168;51.146;17.120;2023-06-19T08:15:55;100191.60;;;27.80
66372;BMP180;53168;51.146;17.120;2023-06-19T08:18:29;100190.80;;;27.78
66372;BMP180;53168;51.146;17.120;2023-06-19T08:21:05;100193.00;;;27.68
66372;BMP180;53168;51.146;17.120;2023-06-19T08:23:41;100190.80;;;27.70
66372;BMP180;53168;51.146;17.120;2023-06-19T08:26:16;100189.20;;;27.88
66372;BMP180;53168;51.146;17.120;2023-06-19T08:28:51;100188.60;;;28.02
66372;BMP180;53168;51.146;17.120;2023-06-19T08:31:24;100186.60;;;28.20
66372;BMP180;53168;51.146;17.120;2023-06-19T08:34:00;100180.20;;;28.34
66372;BMP180;53168;51.146;17.120;2023-06-19T08:36:37;100180.00;;;28.50
66372;BMP180;53168;51.146;17.120;2023-06-19T08:39:11;100180.60;;;28.50
66372;BMP180;53168;51.146;17.120;2023-06-19T08:41:45;100180.20;;;28.50
66372;BMP180;53168;51.146;17.120;2023-06-19T08:44:18;100180.20;;;28.60
66372;BMP180;53168;51.146;17.120;2023-06-19T08:46:52;100182.80;;;28.70
66372;BMP180;53168;51.146;17.120;2023-06-19T08:49:26;100177.40;;;28.88
66372;BMP180;53168;51.146;17.120;2023-06-19T08:52:05;100175.20;;;28.90
66372;BMP180;53168;51.146;17.120;2023-06-19T08:54:39;100175.80;;;28.80
66372;BMP180;53168;51.146;17.120;2023-06-19T08:57:17;100179.00;;;28.80
66372;BMP180;53168;51.146;17.120;2023-06-19T08:59:54;100175.00;;;28.68
66372;BMP180;53168;51.146;17.120;2023-06-19T09:02:37;100174.20;;;28.50
66372;BMP180;53168;51.146;17.120;2023-06-19T09:05:19;100176.20;;;28.30
66372;BMP180;53168;51.146;17.120;2023-06-19T09:08:22;100174.60;;;28.26
66372;BMP180;53168;51.146;17.120;2023-06-19T09:11:29;100176.20;;;28.48
66372;BMP180;53168;51.146;17.120;2023-06-19T09:15:14;100177.40;;;28.80
66372;BMP180;53168;51.146;17.120;2023-06-19T09:17:49;100169.00;;;29.00
66372;BMP180;53168;51.146;17.120;2023-06-19T09:20:34;100175.00;;;29.20
66372;BMP180;53168;51.146;17.120;2023-06-19T09:23:09;100173.40;;;29.40
66372;BMP180;53168;51.146;17.120;2023-06-19T09:25:52;100166.20;;;29.48
66372;BMP180;53168;51.146;17.120;2023-06-19T09:28:29;100161.60;;;29.46
66372;BMP180;53168;51.146;17.120;2023-06-19T09:31:38;100165.00;;;29.70
66372;BMP180;53168;51.146;17.120;2023-06-19T09:34:52;100171.60;;;30.06
66372;BMP180;53168;51.146;17.120;2023-06-19T09:37:59;100164.00;;;30.26
66372;BMP180;53168;51.146;17.120;2023-06-19T09:40:40;100172.80;;;30.24
66372;BMP180;53168;51.146;17.120;2023-06-19T09:43:25;100167.80;;;30.20
66372;BMP180;53168;51.146;17.120;2023-06-19T09:46:00;100168.20;;;30.12
66372;BMP180;53168;51.146;17.120;2023-06-19T09:52:19;100170.00;;;30.00
66372;BMP180;53168;51.146;17.120;2023-06-19T09:54:57;100170.40;;;30.00
66372;BMP180;53168;51.146;17.120;2023-06-19T09:57:32;100167.00;;;29.90
66372;BMP180;53168;51.146;17.120;2023-06-19T10:00:11;100159.80;;;29.84
66372;BMP180;53168;51.146;17.120;2023-06-19T10:02:50;100162.00;;;29.80
66372;BMP180;53168;51.146;17.120;2023-06-19T10:05:33;100157.40;;;29.70
66372;BMP180;53168;51.146;17.120;2023-06-19T10:08:09;100159.80;;;29.70
66372;BMP180;53168;51.146;17.120;2023-06-19T10:10:50;100160.00;;;29.70
66372;BMP180;53168;51.146;17.120;2023-06-19T10:13:35;100157.60;;;29.70
66372;BMP180;53168;51.146;17.120;2023-06-19T10:16:25;100161.60;;;29.90
66372;BMP180;53168;51.146;17.120;2023-06-19T10:19:10;100161.20;;;30.00
66372;BMP180;53168;51.146;17.120;2023-06-19T10:21:50;100157.60;;;30.10
66372;BMP180;53168;51.146;17.120;2023-06-19T10:24:27;100147.80;;;30.32
66372;BMP180;53168;51.146;17.120;2023-06-19T10:27:03;100141.80;;;30.60
66372;BMP180;53168;51.146;17.120;2023-06-19T10:29:44;100145.80;;;30.90
66372;BMP180;53168;51.146;17.120;2023-06-19T10:32:38;100139.80;;;31.04
66372;BMP180;53168;51.146;17.120;2023-06-19T10:35:16;100138.00;;;31.12
66372;BMP180;53168;51.146;17.120;2023-06-19T10:37:54;100138.80;;;31.40
66372;BMP180;53168;51.146;17.120;2023-06-19T10:40:28;100140.20;;;31.72
66372;BMP180;53168;51.146;17.120;2023-06-19T10:43:05;100141.40;;;31.88
66372;BMP180;53168;51.146;17.120;2023-06-19T10:45:41;100144.20;;;31.90
66372;BMP180;53168;51.146;17.120;2023-06-19T10:48:22;100145.00;;;31.96
66372;BMP180;53168;51.146;17.120;2023-06-19T10:50:59;100144.00;;;31.80
66372;BMP180;53168;51.146;17.120;2023-06-19T10:53:38;100140.80;;;31.90
66372;BMP180;53168;51.146;17.120;2023-06-19T10:56:16;100141.80;;;32.24
66372;BMP180;53168;51.146;17.120;2023-06-19T10:59:07;100136.80;;;32.40
66372;BMP180;53168;51.146;17.120;2023-06-19T11:01:46;100136.40;;;32.74
66372;BMP180;53168;51.146;17.120;2023-06-19T11:04:40;100134.60;;;33.18
66372;BMP180;53168;51.146;17.120;2023-06-19T11:20:19;100127.60;;;34.44
66372;BMP180;53168;51.146;17.120;2023-06-19T11:26:44;100123.60;;;34.80
66372;BMP180;53168;51.146;17.120;2023-06-19T11:33:24;100129.80;;;34.70
66372;BMP180;53168;51.146;17.120;2023-06-19T11:36:57;100131.20;;;34.52
66372;BMP180;53168;51.146;17.120;2023-06-19T11:40:12;100129.60;;;34.20
66372;BMP180;53168;51.146;17.120;2023-06-19T11:43:28;100123.40;;;34.18
66372;BMP180;53168;51.146;17.120;2023-06-19T11:49:44;100076.80;;;36.26
66372;BMP180;53168;51.146;17.120;2023-06-19T11:52:46;100072.80;;;36.26
66372;BMP180;53168;51.146;17.120;2023-06-19T11:55:24;100046.40;;;36.68
66372;BMP180;53168;51.146;17.120;2023-06-19T11:57:59;100028.40;;;37.12
66372;BMP180;53168;51.146;17.120;2023-06-19T12:05:14;100066.00;;;38.38
66372;BMP180;53168;51.146;17.120;2023-06-19T12:07:59;100097.20;;;38.16
66372;BMP180;53168;51.146;17.120;2023-06-19T12:10:37;100086.20;;;37.76
66372;BMP180;53168;51.146;17.120;2023-06-19T12:13:13;100081.60;;;37.90
66372;BMP180;53168;51.146;17.120;2023-06-19T12:23:17;100107.40;;;37.18
66372;BMP180;53168;51.146;17.120;2023-06-19T12:25:54;100101.00;;;37.00
66372;BMP180;53168;51.146;17.120;2023-06-19T12:29:02;100108.00;;;36.74
66372;BMP180;53168;51.146;17.120;2023-06-19T12:32:28;100110.20;;;36.30
66372;BMP180;53168;51.146;17.120;2023-06-19T12:38:12;100113.80;;;35.44
66372;BMP180;53168;51.146;17.120;2023-06-19T12:40:46;100113.20;;;35.00
66372;BMP180;53168;51.146;17.120;2023-06-19T12:43:21;100108.00;;;34.80
66372;BMP180;53168;51.146;17.120;2023-06-19T12:45:55;100109.40;;;34.60
66372;BMP180;53168;51.146;17.120;2023-06-19T12:48:30;100103.80;;;34.30
66372;BMP180;53168;51.146;17.120;2023-06-19T12:51:05;100107.40;;;34.10
66372;BMP180;53168;51.146;17.120;2023-06-19T12:53:39;100105.00;;;33.94
66372;BMP180;53168;51.146;17.120;2023-06-19T12:56:13;100104.40;;;33.78
66372;BMP180;53168;51.146;17.120;2023-06-19T13:02:11;100097.80;;;33.70
66372;BMP180;53168;51.146;17.120;2023-06-19T13:05:36;100097.60;;;33.60
66372;BMP180;53168;51.146;17.120;2023-06-19T13:08:32;100099.40;;;33.60
66372;BMP180;53168;51.146;17.120;2023-06-19T13:11:06;100102.60;;;33.28
66372;BMP180;53168;51.146;17.120;2023-06-19T13:17:41;100105.40;;;33.22
66372;BMP180;53168;51.146;17.120;2023-06-19T13:20:53;100105.00;;;33.20
66372;BMP180;53168;51.146;17.120;2023-06-19T13:23:31;100097.40;;;33.20
66372;BMP180;53168;51.146;17.120;2023-06-19T13:26:11;100099.20;;;33.28
66372;BMP180;53168;51.146;17.120;2023-06-19T13:28:46;100100.00;;;33.30
66372;BMP180;53168;51.146;17.120;2023-06-19T13:31:49;100098.00;;;33.50
66372;BMP180;53168;51.146;17.120;2023-06-19T13:34:44;100091.80;;;33.80
66372;BMP180;53168;51.146;17.120;2023-06-19T13:40:23;100065.00;;;36.38
66372;BMP180;53168;51.146;17.120;2023-06-19T13:43:04;100064.60;;;37.72
66372;BMP180;53168;51.146;17.120;2023-06-19T13:45:39;100070.00;;;38.70
66372;BMP180;53168;51.146;17.120;2023-06-19T13:52:20;100087.60;;;39.66
66372;BMP180;53168;51.146;17.120;2023-06-19T13:55:13;100089.60;;;38.48
66372;BMP180;53168;51.146;17.120;2023-06-19T13:57:48;100091.20;;;37.38
66372;BMP180;53168;51.146;17.120;2023-06-19T14:00:22;100085.00;;;36.72
66372;BMP180;53168;51.146;17.120;2023-06-19T14:02:56;100084.80;;;36.50
66372;BMP180;53168;51.146;17.120;2023-06-19T14:05:31;100059.00;;;36.74
66372;BMP180;53168;51.146;17.120;2023-06-19T14:08:14;100060.60;;;38.06
66372;BMP180;53168;51.146;17.120;2023-06-19T14:10:50;100062.60;;;39.04
66372;BMP180;53168;51.146;17.120;2023-06-19T14:13:35;100069.80;;;39.86
66372;BMP180;53168;51.146;17.120;2023-06-19T14:16:33;100064.60;;;40.54
66372;BMP180;53168;51.146;17.120;2023-06-19T14:19:39;100070.20;;;41.18
66372;BMP180;53168;51.146;17.120;2023-06-19T14:22:45;100058.80;;;41.30
66372;BMP180;53168;51.146;17.120;2023-06-19T14:25:46;100053.60;;;41.46
66372;BMP180;53168;51.146;17.120;2023-06-19T14:28:41;100084.60;;;40.94
66372;BMP180;53168;51.146;17.120;2023-06-19T14:38:14;100090.00;;;38.10
66372;BMP180;53168;51.146;17.120;2023-06-19T14:44:09;100091.80;;;36.26
66372;BMP180;53168;51.146;17.120;2023-06-19T14:47:10;100085.20;;;35.66
66372;BMP180;53168;51.146;17.120;2023-06-19T14:50:51;100083.80;;;35.60
66372;BMP180;53168;51.146;17.120;2023-06-19T14:53:32;100058.80;;;36.22
66372;BMP180;53168;51.146;17.120;2023-06-19T14:56:08;100073.40;;;36.72
66372;BMP180;53168;51.146;17.120;2023-06-19T14:58:47;100056.20;;;36.54
66372;BMP180;53168;51.146;17.120;2023-06-19T15:01:24;100062.20;;;37.46
66372;BMP180;53168;51.146;17.120;2023-06-19T15:04:08;100058.60;;;38.28
66372;BMP180;53168;51.146;17.120;2023-06-19T15:06:52;100059.60;;;38.96
66372;BMP180;53168;51.146;17.120;2023-06-19T15:09:28;100058.00;;;39.48
66372;BMP180;53168;51.146;17.120;2023-06-19T15:12:04;100057.40;;;39.92
66372;BMP180;53168;51.146;17.120;2023-06-19T15:14:44;100074.20;;;40.04
66372;BMP180;53168;51.146;17.120;2023-06-19T15:17:22;100092.00;;;39.16
66372;BMP180;53168;51.146;17.120;2023-06-19T15:19:57;100065.40;;;38.58
66372;BMP180;53168;51.146;17.120;2023-06-19T15:23:09;100093.20;;;38.14
66372;BMP180;53168;51.146;17.120;2023-06-19T15:25:51;100093.80;;;36.96
66372;BMP180;53168;51.146;17.120;2023-06-19T15:28:27;100092.80;;;36.04
66372;BMP180;53168;51.146;17.120;2023-06-19T15:31:03;100080.80;;;35.44
66372;BMP180;53168;51.146;17.120;2023-06-19T15:33:37;100088.00;;;35.04
66372;BMP180;53168;51.146;17.120;2023-06-19T15:36:15;100089.80;;;34.52
66372;BMP180;53168;51.146;17.120;2023-06-19T15:39:44;100066.20;;;33.90
66372;BMP180;53168;51.146;17.120;2023-06-19T15:42:37;100057.00;;;34.64
66372;BMP180;53168;51.146;17.120;2023-06-19T15:56:55;100048.20;;;35.14
66372;BMP180;53168;51.146;17.120;2023-06-19T16:00:40;100056.60;;;35.80
66372;BMP180;53168;51.146;17.120;2023-06-19T16:03:14;100080.20;;;35.94
66372;BMP180;53168;51.146;17.120;2023-06-19T16:05:49;100067.80;;;35.60
66372;BMP180;53168;51.146;17.120;2023-06-19T16:08:28;100065.80;;;35.10
66372;BMP180;53168;51.146;17.120;2023-06-19T16:11:04;100052.20;;;34.86
66372;BMP180;53168;51.146;17.120;2023-06-19T16:14:11;100041.60;;;35.00
66372;BMP180;53168;51.146;17.120;2023-06-19T16:16:45;100043.20;;;35.46
66372;BMP180;53168;51.146;17.120;2023-06-19T16:19:19;100043.20;;;35.74
66372;BMP180;53168;51.146;17.120;2023-06-19T16:21:53;100054.40;;;35.70
66372;BMP180;53168;51.146;17.120;2023-06-19T16:24:27;100046.40;;;35.50
66372;BMP180;53168;51.146;17.120;2023-06-19T16:27:04;100068.00;;;34.94
66372;BMP180;53168;51.146;17.120;2023-06-19T16:29:38;100072.20;;;34.14
66372;BMP180;53168;51.146;17.120;2023-06-19T16:32:39;100069.00;;;33.42
66372;BMP180;53168;51.146;17.120;2023-06-19T16:35:13;100075.00;;;32.62
66372;BMP180;53168;51.146;17.120;2023-06-19T16:37:55;100074.40;;;32.04
66372;BMP180;53168;51.146;17.120;2023-06-19T16:40:29;100076.60;;;31.60
66372;BMP180;53168;51.146;17.120;2023-06-19T16:43:05;100075.40;;;31.20
66372;BMP180;53168;51.146;17.120;2023-06-19T16:45:40;100077.40;;;30.88
66372;BMP180;53168;51.146;17.120;2023-06-19T16:48:15;100079.20;;;30.60
66372;BMP180;53168;51.146;17.120;2023-06-19T16:50:50;100073.20;;;30.32
66372;BMP180;53168;51.146;17.120;2023-06-19T16:53:23;100067.00;;;30.10
66372;BMP180;53168;51.146;17.120;2023-06-19T16:55:58;100066.80;;;29.96
66372;BMP180;53168;51.146;17.120;2023-06-19T16:58:32;100066.20;;;29.80
66372;BMP180;53168;51.146;17.120;2023-06-19T17:01:06;100071.20;;;29.70
66372;BMP180;53168;51.146;17.120;2023-06-19T17:03:43;100067.60;;;29.50
66372;BMP180;53168;51.146;17.120;2023-06-19T17:06:17;100069.60;;;29.40
66372;BMP180;53168;51.146;17.120;2023-06-19T17:08:51;100067.80;;;29.30
66372;BMP180;53168;51.146;17.120;2023-06-19T17:11:25;100067.40;;;29.20
66372;BMP180;53168;51.146;17.120;2023-06-19T17:13:59;100067.00;;;29.20
66372;BMP180;53168;51.146;17.120;2023-06-19T17:16:34;100048.20;;;29.30
66372;BMP180;53168;51.146;17.120;2023-06-19T17:19:13;100037.20;;;29.86
66372;BMP180;53168;51.146;17.120;2023-06-19T17:21:48;100044.20;;;30.20
66372;BMP180;53168;51.146;17.120;2023-06-19T17:24:26;100050.40;;;30.30
66372;BMP180;53168;51.146;17.120;2023-06-19T17:27:00;100053.80;;;30.30
66372;BMP180;53168;51.146;17.120;2023-06-19T17:29:42;100052.20;;;30.40
66372;BMP180;53168;51.146;17.120;2023-06-19T17:32:27;100040.40;;;30.40
66372;BMP180;53168;51.146;17.120;2023-06-19T17:35:40;100030.00;;;30.84
66372;BMP180;53168;51.146;17.120;2023-06-19T17:38:14;100038.40;;;31.40
66372;BMP180;53168;51.146;17.120;2023-06-19T17:40:49;100051.40;;;31.26
66372;BMP180;53168;51.146;17.120;2023-06-19T17:43:24;100053.80;;;30.86
66372;BMP180;53168;51.146;17.120;2023-06-19T17:45:58;100048.00;;;30.46